sensor_id;sensor_type;location;lat;lon;timestamp;P1;durP1;ratioP1;P2;durP2;ratioP2
37641;SDS011;23486;51.956;5.888;2022-12-26T00:01:45;36.35;;;16.15;;
37641;SDS011;23486;51.956;5.888;2022-12-26T00:04:14;44.00;;;18.40;;
37641;SDS011;23486;51.956;5.888;2022-12-26T00:06:40;47.78;;;18.70;;
37641;SDS011;23486;51.956;5.888;2022-12-26T00:09:06;47.60;;;18.17;;
37641;SDS011;23486;51.956;5.888;2022-12-26T00:11:38;54.53;;;19.55;;
37641;SDS011;23486;51.956;5.888;2022-12-26T00:14:08;56.33;;;22.95;;
37641;SDS011;23486;51.956;5.888;2022-12-26T00:16:42;61.97;;;21.17;;
37641;SDS011;23486;51.956;5.888;2022-12-26T00:19:09;65.25;;;21.55;;
37641;SDS011;23486;51.956;5.888;2022-12-26T00:21:35;67.75;;;24.80;;
37641;SDS011;23486;51.956;5.888;2022-12-26T00:24:01;56.30;;;23.27;;
37641;SDS011;23486;51.956;5.888;2022-12-26T00:26:29;68.93;;;21.63;;
37641;SDS011;23486;51.956;5.888;2022-12-26T00:28:56;73.32;;;22.50;;
37641;SDS011;23486;51.956;5.888;2022-12-26T00:31:25;54.42;;;20.17;;
37641;SDS011;23486;51.956;5.888;2022-12-26T00:33:52;66.57;;;21.98;;
37641;SDS011;23486;51.956;5.888;2022-12-26T00:36:19;69.10;;;23.65;;
37641;SDS011;23486;51.956;5.888;2022-12-26T00:38:53;57.50;;;20.00;;
37641;SDS011;23486;51.956;5.888;2022-12-26T00:41:20;61.15;;;22.02;;
37641;SDS011;23486;51.956;5.888;2022-12-26T00:43:46;58.30;;;20.23;;
37641;SDS011;23486;51.956;5.888;2022-12-26T00:46:12;61.08;;;22.75;;
37641;SDS011;23486;51.956;5.888;2022-12-26T00:48:38;57.45;;;23.42;;
37641;SDS011;23486;51.956;5.888;2022-12-26T00:51:04;59.83;;;23.27;;
37641;SDS011;23486;51.956;5.888;2022-12-26T00:53:31;53.83;;;22.63;;
37641;SDS011;23486;51.956;5.888;2022-12-26T00:55:57;55.90;;;21.52;;
37641;SDS011;23486;51.956;5.888;2022-12-26T00:58:23;53.65;;;21.85;;
37641;SDS011;23486;51.956;5.888;2022-12-26T01:00:48;64.13;;;25.45;;
37641;SDS011;23486;51.956;5.888;2022-12-26T01:03:15;61.58;;;25.02;;
37641;SDS011;23486;51.956;5.888;2022-12-26T01:05:42;59.83;;;23.48;;
37641;SDS011;23486;51.956;5.888;2022-12-26T01:08:09;62.58;;;25.38;;
37641;SDS011;23486;51.956;5.888;2022-12-26T01:10:42;67.22;;;25.83;;
37641;SDS011;23486;51.956;5.888;2022-12-26T01:13:09;72.85;;;28.13;;
37641;SDS011;23486;51.956;5.888;2022-12-26T01:15:35;59.28;;;24.45;;
37641;SDS011;23486;51.956;5.888;2022-12-26T01:18:01;68.93;;;26.92;;
37641;SDS011;23486;51.956;5.888;2022-12-26T01:20:27;67.28;;;27.10;;
37641;SDS011;23486;51.956;5.888;2022-12-26T01:22:53;66.13;;;25.98;;
37641;SDS011;23486;51.956;5.888;2022-12-26T01:25:19;64.72;;;26.08;;
37641;SDS011;23486;51.956;5.888;2022-12-26T01:27:45;68.47;;;27.45;;
37641;SDS011;23486;51.956;5.888;2022-12-26T01:30:11;61.92;;;24.23;;
37641;SDS011;23486;51.956;5.888;2022-12-26T01:32:36;67.63;;;26.23;;
37641;SDS011;23486;51.956;5.888;2022-12-26T01:35:02;58.05;;;23.90;;
37641;SDS011;23486;51.956;5.888;2022-12-26T01:37:28;53.95;;;22.13;;
37641;SDS011;23486;51.956;5.888;2022-12-26T01:39:53;59.67;;;25.10;;
37641;SDS011;23486;51.956;5.888;2022-12-26T01:42:21;53.35;;;22.17;;
37641;SDS011;23486;51.956;5.888;2022-12-26T01:47:22;53.17;;;24.23;;
37641;SDS011;23486;51.956;5.888;2022-12-26T01:49:55;59.08;;;25.05;;
37641;SDS011;23486;51.956;5.888;2022-12-26T01:52:23;56.90;;;24.60;;
37641;SDS011;23486;51.956;5.888;2022-12-26T01:54:55;52.67;;;22.48;;
37641;SDS011;23486;51.956;5.888;2022-12-26T01:57:22;46.22;;;21.15;;
37641;SDS011;23486;51.956;5.888;2022-12-26T01:59:52;49.35;;;22.25;;
37641;SDS011;23486;51.956;5.888;2022-12-26T02:02:20;48.83;;;22.42;;
37641;SDS011;23486;51.956;5.888;2022-12-26T02:04:48;51.05;;;21.10;;
37641;SDS011;23486;51.956;5.888;2022-12-26T02:07:35;47.80;;;21.70;;
37641;SDS011;23486;51.956;5.888;2022-12-26T02:10:05;43.58;;;20.27;;
37641;SDS011;23486;51.956;5.888;2022-12-26T02:12:34;52.08;;;22.90;;
37641;SDS011;23486;51.956;5.888;2022-12-26T02:15:01;49.05;;;23.75;;
37641;SDS011;23486;51.956;5.888;2022-12-26T02:17:28;52.08;;;23.10;;
37641;SDS011;23486;51.956;5.888;2022-12-26T02:33:46;59.22;;;26.95;;
37641;SDS011;23486;51.956;5.888;2022-12-26T02:39:22;60.72;;;27.95;;
37641;SDS011;23486;51.956;5.888;2022-12-26T02:48:02;59.90;;;28.10;;
37641;SDS011;23486;51.956;5.888;2022-12-26T02:56:23;66.72;;;30.58;;
37641;SDS011;23486;51.956;5.888;2022-12-26T03:05:26;68.70;;;33.22;;
37641;SDS011;23486;51.956;5.888;2022-12-26T03:08:21;62.13;;;31.27;;
37641;SDS011;23486;51.956;5.888;2022-12-26T03:11:11;62.08;;;31.15;;
37641;SDS011;23486;51.956;5.888;2022-12-26T03:13:58;59.10;;;29.55;;
37641;SDS011;23486;51.956;5.888;2022-12-26T03:16:31;57.88;;;29.73;;
37641;SDS011;23486;51.956;5.888;2022-12-26T03:19:16;54.92;;;28.70;;
37641;SDS011;23486;51.956;5.888;2022-12-26T03:21:44;56.00;;;29.33;;
37641;SDS011;23486;51.956;5.888;2022-12-26T03:24:11;53.58;;;27.80;;
37641;SDS011;23486;51.956;5.888;2022-12-26T03:26:42;50.08;;;27.67;;
37641;SDS011;23486;51.956;5.888;2022-12-26T03:29:16;54.20;;;28.25;;
37641;SDS011;23486;51.956;5.888;2022-12-26T03:32:06;52.85;;;28.42;;
37641;SDS011;23486;51.956;5.888;2022-12-26T03:34:36;43.40;;;24.20;;
37641;SDS011;23486;51.956;5.888;2022-12-26T03:43:06;54.30;;;27.60;;
37641;SDS011;23486;51.956;5.888;2022-12-26T03:49:08;59.15;;;31.52;;
37641;SDS011;23486;51.956;5.888;2022-12-26T03:52:14;57.08;;;29.90;;
37641;SDS011;23486;51.956;5.888;2022-12-26T03:55:17;65.47;;;33.45;;
37641;SDS011;23486;51.956;5.888;2022-12-26T03:58:10;71.38;;;36.00;;
37641;SDS011;23486;51.956;5.888;2022-12-26T04:01:07;75.85;;;37.47;;
37641;SDS011;23486;51.956;5.888;2022-12-26T04:03:57;79.47;;;40.03;;
37641;SDS011;23486;51.956;5.888;2022-12-26T04:06:48;75.53;;;39.35;;
37641;SDS011;23486;51.956;5.888;2022-12-26T04:09:48;73.72;;;39.35;;
37641;SDS011;23486;51.956;5.888;2022-12-26T04:12:38;74.65;;;38.28;;
37641;SDS011;23486;51.956;5.888;2022-12-26T04:15:27;73.40;;;36.78;;
37641;SDS011;23486;51.956;5.888;2022-12-26T04:18:41;65.72;;;35.10;;
37641;SDS011;23486;51.956;5.888;2022-12-26T04:21:28;72.57;;;36.60;;
37641;SDS011;23486;51.956;5.888;2022-12-26T04:24:22;76.40;;;38.17;;
37641;SDS011;23486;51.956;5.888;2022-12-26T04:27:11;77.40;;;38.78;;
37641;SDS011;23486;51.956;5.888;2022-12-26T04:30:00;70.03;;;35.85;;
37641;SDS011;23486;51.956;5.888;2022-12-26T04:32:48;68.13;;;33.20;;
37641;SDS011;23486;51.956;5.888;2022-12-26T04:35:44;62.95;;;33.72;;
37641;SDS011;23486;51.956;5.888;2022-12-26T04:38:35;62.97;;;35.08;;
37641;SDS011;23486;51.956;5.888;2022-12-26T04:41:24;67.35;;;36.13;;
37641;SDS011;23486;51.956;5.888;2022-12-26T04:44:11;62.65;;;34.10;;
37641;SDS011;23486;51.956;5.888;2022-12-26T04:46:39;56.22;;;32.83;;
37641;SDS011;23486;51.956;5.888;2022-12-26T04:49:07;59.42;;;32.50;;
37641;SDS011;23486;51.956;5.888;2022-12-26T04:51:58;56.42;;;30.58;;
37641;SDS011;23486;51.956;5.888;2022-12-26T04:54:25;53.53;;;30.95;;
37641;SDS011;23486;51.956;5.888;2022-12-26T04:56:51;55.67;;;31.20;;
37641;SDS011;23486;51.956;5.888;2022-12-26T04:59:17;48.67;;;28.00;;
37641;SDS011;23486;51.956;5.888;2022-12-26T05:01:43;51.33;;;29.73;;
37641;SDS011;23486;51.956;5.888;2022-12-26T05:04:27;47.42;;;29.25;;
37641;SDS011;23486;51.956;5.888;2022-12-26T05:10:20;46.05;;;26.15;;
37641;SDS011;23486;51.956;5.888;2022-12-26T05:12:48;43.35;;;25.00;;
37641;SDS011;23486;51.956;5.888;2022-12-26T05:15:14;39.97;;;24.38;;
37641;SDS011;23486;51.956;5.888;2022-12-26T05:17:40;41.58;;;25.92;;
37641;SDS011;23486;51.956;5.888;2022-12-26T05:20:24;40.35;;;24.80;;
37641;SDS011;23486;51.956;5.888;2022-12-26T05:26:22;39.50;;;24.07;;
37641;SDS011;23486;51.956;5.888;2022-12-26T05:29:06;36.50;;;21.48;;
37641;SDS011;23486;51.956;5.888;2022-12-26T05:31:32;34.30;;;22.00;;
37641;SDS011;23486;51.956;5.888;2022-12-26T05:33:58;30.58;;;20.05;;
37641;SDS011;23486;51.956;5.888;2022-12-26T05:36:30;29.42;;;18.92;;
37641;SDS011;23486;51.956;5.888;2022-12-26T05:39:00;30.05;;;19.27;;
37641;SDS011;23486;51.956;5.888;2022-12-26T05:41:25;29.52;;;18.90;;
37641;SDS011;23486;51.956;5.888;2022-12-26T05:43:51;25.83;;;16.60;;
37641;SDS011;23486;51.956;5.888;2022-12-26T05:46:19;25.50;;;17.15;;
37641;SDS011;23486;51.956;5.888;2022-12-26T05:48:45;22.77;;;14.65;;
37641;SDS011;23486;51.956;5.888;2022-12-26T05:51:11;20.25;;;13.38;;
37641;SDS011;23486;51.956;5.888;2022-12-26T05:53:36;19.17;;;12.48;;
37641;SDS011;23486;51.956;5.888;2022-12-26T05:56:03;19.13;;;12.27;;
37641;SDS011;23486;51.956;5.888;2022-12-26T05:58:34;14.75;;;10.30;;
37641;SDS011;23486;51.956;5.888;2022-12-26T06:01:06;17.52;;;11.02;;
37641;SDS011;23486;51.956;5.888;2022-12-26T06:03:45;16.60;;;11.18;;
37641;SDS011;23486;51.956;5.888;2022-12-26T06:06:12;15.95;;;10.27;;
37641;SDS011;23486;51.956;5.888;2022-12-26T06:08:38;15.02;;;10.07;;
37641;SDS011;23486;51.956;5.888;2022-12-26T06:11:05;15.35;;;9.57;;
37641;SDS011;23486;51.956;5.888;2022-12-26T06:13:32;13.25;;;9.05;;
37641;SDS011;23486;51.956;5.888;2022-12-26T06:15:58;15.13;;;10.43;;
37641;SDS011;23486;51.956;5.888;2022-12-26T06:18:24;14.32;;;10.05;;
37641;SDS011;23486;51.956;5.888;2022-12-26T06:20:50;12.88;;;8.50;;
37641;SDS011;23486;51.956;5.888;2022-12-26T06:23:16;12.90;;;7.88;;
37641;SDS011;23486;51.956;5.888;2022-12-26T06:25:41;11.50;;;7.60;;
37641;SDS011;23486;51.956;5.888;2022-12-26T06:28:07;14.20;;;8.57;;
37641;SDS011;23486;51.956;5.888;2022-12-26T06:30:33;13.88;;;8.23;;
37641;SDS011;23486;51.956;5.888;2022-12-26T06:32:58;12.55;;;7.95;;
37641;SDS011;23486;51.956;5.888;2022-12-26T06:35:24;15.02;;;9.57;;
37641;SDS011;23486;51.956;5.888;2022-12-26T06:37:49;15.95;;;9.30;;
37641;SDS011;23486;51.956;5.888;2022-12-26T06:40:15;13.32;;;8.50;;
37641;SDS011;23486;51.956;5.888;2022-12-26T06:42:40;14.20;;;8.02;;
37641;SDS011;23486;51.956;5.888;2022-12-26T06:45:06;16.38;;;9.18;;
37641;SDS011;23486;51.956;5.888;2022-12-26T06:47:32;15.32;;;9.50;;
37641;SDS011;23486;51.956;5.888;2022-12-26T06:49:58;17.20;;;9.55;;
37641;SDS011;23486;51.956;5.888;2022-12-26T06:52:23;17.98;;;9.60;;
37641;SDS011;23486;51.956;5.888;2022-12-26T06:54:49;18.92;;;10.23;;
37641;SDS011;23486;51.956;5.888;2022-12-26T06:57:14;15.45;;;9.27;;
37641;SDS011;23486;51.956;5.888;2022-12-26T06:59:40;16.35;;;10.15;;
37641;SDS011;23486;51.956;5.888;2022-12-26T07:02:07;19.85;;;10.63;;
37641;SDS011;23486;51.956;5.888;2022-12-26T07:04:35;17.90;;;10.02;;
37641;SDS011;23486;51.956;5.888;2022-12-26T07:07:00;22.23;;;11.50;;
37641;SDS011;23486;51.956;5.888;2022-12-26T07:09:32;19.83;;;10.93;;
37641;SDS011;23486;51.956;5.888;2022-12-26T07:11:58;15.20;;;9.18;;
37641;SDS011;23486;51.956;5.888;2022-12-26T07:14:23;17.23;;;10.15;;
37641;SDS011;23486;51.956;5.888;2022-12-26T07:16:49;15.60;;;9.93;;
37641;SDS011;23486;51.956;5.888;2022-12-26T07:19:14;15.90;;;8.88;;
37641;SDS011;23486;51.956;5.888;2022-12-26T07:21:40;18.63;;;10.68;;
37641;SDS011;23486;51.956;5.888;2022-12-26T07:24:12;15.77;;;9.60;;
37641;SDS011;23486;51.956;5.888;2022-12-26T07:26:43;21.30;;;11.90;;
37641;SDS011;23486;51.956;5.888;2022-12-26T07:29:09;19.13;;;11.15;;
37641;SDS011;23486;51.956;5.888;2022-12-26T07:31:35;21.02;;;12.80;;
37641;SDS011;23486;51.956;5.888;2022-12-26T07:34:01;21.38;;;11.45;;
37641;SDS011;23486;51.956;5.888;2022-12-26T07:36:27;18.70;;;11.50;;
37641;SDS011;23486;51.956;5.888;2022-12-26T07:38:53;21.95;;;11.63;;
37641;SDS011;23486;51.956;5.888;2022-12-26T07:41:19;18.33;;;11.50;;
37641;SDS011;23486;51.956;5.888;2022-12-26T07:44:10;18.60;;;11.23;;
37641;SDS011;23486;51.956;5.888;2022-12-26T07:46:36;18.15;;;11.50;;
37641;SDS011;23486;51.956;5.888;2022-12-26T07:49:04;22.33;;;12.32;;
37641;SDS011;23486;51.956;5.888;2022-12-26T07:51:30;19.13;;;11.27;;
37641;SDS011;23486;51.956;5.888;2022-12-26T07:53:55;18.60;;;11.82;;
37641;SDS011;23486;51.956;5.888;2022-12-26T07:56:21;19.30;;;11.82;;
37641;SDS011;23486;51.956;5.888;2022-12-26T07:58:47;22.67;;;11.55;;
37641;SDS011;23486;51.956;5.888;2022-12-26T08:01:13;20.90;;;11.40;;
37641;SDS011;23486;51.956;5.888;2022-12-26T08:03:39;13.73;;;9.45;;
37641;SDS011;23486;51.956;5.888;2022-12-26T08:06:05;16.52;;;10.02;;
37641;SDS011;23486;51.956;5.888;2022-12-26T08:08:33;14.98;;;9.50;;
37641;SDS011;23486;51.956;5.888;2022-12-26T08:10:59;15.10;;;9.38;;
37641;SDS011;23486;51.956;5.888;2022-12-26T08:13:29;14.15;;;9.43;;
37641;SDS011;23486;51.956;5.888;2022-12-26T08:15:55;14.50;;;8.48;;
37641;SDS011;23486;51.956;5.888;2022-12-26T08:18:21;13.52;;;8.48;;
37641;SDS011;23486;51.956;5.888;2022-12-26T08:20:48;14.23;;;8.40;;
37641;SDS011;23486;51.956;5.888;2022-12-26T08:23:13;13.15;;;7.75;;
37641;SDS011;23486;51.956;5.888;2022-12-26T08:25:39;14.43;;;7.85;;
37641;SDS011;23486;51.956;5.888;2022-12-26T08:28:05;13.00;;;7.75;;
37641;SDS011;23486;51.956;5.888;2022-12-26T08:30:30;15.93;;;8.93;;
37641;SDS011;23486;51.956;5.888;2022-12-26T08:32:56;12.23;;;8.13;;
37641;SDS011;23486;51.956;5.888;2022-12-26T08:35:21;13.15;;;7.72;;
37641;SDS011;23486;51.956;5.888;2022-12-26T08:37:50;12.07;;;6.03;;
37641;SDS011;23486;51.956;5.888;2022-12-26T08:40:15;11.95;;;7.03;;
37641;SDS011;23486;51.956;5.888;2022-12-26T08:42:41;10.05;;;6.55;;
37641;SDS011;23486;51.956;5.888;2022-12-26T08:45:07;12.63;;;6.85;;
37641;SDS011;23486;51.956;5.888;2022-12-26T08:47:32;10.73;;;6.38;;
37641;SDS011;23486;51.956;5.888;2022-12-26T08:49:58;12.88;;;7.68;;
37641;SDS011;23486;51.956;5.888;2022-12-26T08:52:24;14.45;;;7.35;;
37641;SDS011;23486;51.956;5.888;2022-12-26T08:54:52;9.15;;;5.80;;
37641;SDS011;23486;51.956;5.888;2022-12-26T08:57:21;11.75;;;6.53;;
37641;SDS011;23486;51.956;5.888;2022-12-26T08:59:46;10.95;;;5.97;;
37641;SDS011;23486;51.956;5.888;2022-12-26T09:02:12;9.68;;;5.75;;
37641;SDS011;23486;51.956;5.888;2022-12-26T09:04:37;10.63;;;5.88;;
37641;SDS011;23486;51.956;5.888;2022-12-26T09:07:03;9.57;;;5.32;;
37641;SDS011;23486;51.956;5.888;2022-12-26T09:09:32;7.45;;;4.20;;
37641;SDS011;23486;51.956;5.888;2022-12-26T09:11:57;9.18;;;4.88;;
37641;SDS011;23486;51.956;5.888;2022-12-26T09:14:23;9.52;;;4.68;;
37641;SDS011;23486;51.956;5.888;2022-12-26T09:16:48;5.72;;;3.97;;
37641;SDS011;23486;51.956;5.888;2022-12-26T09:19:18;9.38;;;4.45;;
37641;SDS011;23486;51.956;5.888;2022-12-26T09:21:45;12.30;;;4.80;;
37641;SDS011;23486;51.956;5.888;2022-12-26T09:24:13;6.65;;;3.50;;
37641;SDS011;23486;51.956;5.888;2022-12-26T09:26:41;6.43;;;3.88;;
37641;SDS011;23486;51.956;5.888;2022-12-26T09:29:08;9.18;;;3.90;;
37641;SDS011;23486;51.956;5.888;2022-12-26T09:31:35;10.48;;;3.60;;
37641;SDS011;23486;51.956;5.888;2022-12-26T09:34:05;5.05;;;2.53;;
37641;SDS011;23486;51.956;5.888;2022-12-26T09:36:32;9.50;;;3.58;;
37641;SDS011;23486;51.956;5.888;2022-12-26T09:39:01;8.80;;;3.00;;
37641;SDS011;23486;51.956;5.888;2022-12-26T09:41:34;8.02;;;3.25;;
37641;SDS011;23486;51.956;5.888;2022-12-26T09:49:28;9.07;;;2.83;;
37641;SDS011;23486;51.956;5.888;2022-12-26T09:52:01;7.28;;;2.53;;
37641;SDS011;23486;51.956;5.888;2022-12-26T09:54:36;7.57;;;3.17;;
37641;SDS011;23486;51.956;5.888;2022-12-26T09:57:08;9.68;;;3.05;;
37641;SDS011;23486;51.956;5.888;2022-12-26T09:59:45;6.57;;;2.90;;
37641;SDS011;23486;51.956;5.888;2022-12-26T10:02:22;5.32;;;2.40;;
37641;SDS011;23486;51.956;5.888;2022-12-26T10:04:50;9.80;;;2.60;;
37641;SDS011;23486;51.956;5.888;2022-12-26T10:20:33;8.32;;;3.17;;
37641;SDS011;23486;51.956;5.888;2022-12-26T10:23:27;13.98;;;1.85;;
37641;SDS011;23486;51.956;5.888;2022-12-26T10:28:35;8.20;;;1.42;;
37641;SDS011;23486;51.956;5.888;2022-12-26T10:31:08;6.68;;;2.03;;
37641;SDS011;23486;51.956;5.888;2022-12-26T10:36:54;11.50;;;1.70;;
37641;SDS011;23486;51.956;5.888;2022-12-26T10:39:35;7.70;;;2.08;;
37641;SDS011;23486;51.956;5.888;2022-12-26T10:45:00;9.52;;;1.88;;
37641;SDS011;23486;51.956;5.888;2022-12-26T10:47:32;6.25;;;1.90;;
37641;SDS011;23486;51.956;5.888;2022-12-26T10:50:02;5.43;;;1.92;;
37641;SDS011;23486;51.956;5.888;2022-12-26T10:52:32;7.43;;;2.15;;
37641;SDS011;23486;51.956;5.888;2022-12-26T10:55:01;12.15;;;4.13;;
37641;SDS011;23486;51.956;5.888;2022-12-26T10:57:28;12.50;;;3.33;;
37641;SDS011;23486;51.956;5.888;2022-12-26T10:59:55;8.18;;;1.58;;
37641;SDS011;23486;51.956;5.888;2022-12-26T11:02:29;14.10;;;1.55;;
37641;SDS011;23486;51.956;5.888;2022-12-26T11:07:24;15.80;;;1.77;;
37641;SDS011;23486;51.956;5.888;2022-12-26T11:09:51;11.35;;;1.02;;
37641;SDS011;23486;51.956;5.888;2022-12-26T11:14:57;15.07;;;0.90;;
37641;SDS011;23486;51.956;5.888;2022-12-26T11:17:27;13.13;;;0.82;;
37641;SDS011;23486;51.956;5.888;2022-12-26T11:22:41;9.95;;;0.70;;
37641;SDS011;23486;51.956;5.888;2022-12-26T11:27:42;16.80;;;2.03;;
37641;SDS011;23486;51.956;5.888;2022-12-26T11:35:33;15.68;;;1.10;;
37641;SDS011;23486;51.956;5.888;2022-12-26T11:38:02;11.85;;;1.15;;
37641;SDS011;23486;51.956;5.888;2022-12-26T11:40:36;7.63;;;0.80;;
37641;SDS011;23486;51.956;5.888;2022-12-26T11:43:10;7.80;;;0.80;;
37641;SDS011;23486;51.956;5.888;2022-12-26T11:45:41;12.52;;;0.90;;
37641;SDS011;23486;51.956;5.888;2022-12-26T11:48:20;14.73;;;0.90;;
37641;SDS011;23486;51.956;5.888;2022-12-26T11:50:48;21.88;;;1.77;;
37641;SDS011;23486;51.956;5.888;2022-12-26T11:53:16;11.75;;;1.25;;
37641;SDS011;23486;51.956;5.888;2022-12-26T11:55:44;10.30;;;0.90;;
37641;SDS011;23486;51.956;5.888;2022-12-26T11:58:21;10.93;;;1.20;;
37641;SDS011;23486;51.956;5.888;2022-12-26T12:03:23;11.43;;;0.88;;
37641;SDS011;23486;51.956;5.888;2022-12-26T12:19:44;5.32;;;0.38;;
37641;SDS011;23486;51.956;5.888;2022-12-26T12:22:28;6.43;;;0.90;;
37641;SDS011;23486;51.956;5.888;2022-12-26T12:25:26;3.38;;;0.32;;
37641;SDS011;23486;51.956;5.888;2022-12-26T12:37:10;4.63;;;0.38;;
37641;SDS011;23486;51.956;5.888;2022-12-26T12:43:14;7.32;;;0.50;;
37641;SDS011;23486;51.956;5.888;2022-12-26T12:45:23;2.10;;;0.22;;
37641;SDS011;23486;51.956;5.888;2022-12-26T12:47:58;6.65;;;0.40;;
37641;SDS011;23486;51.956;5.888;2022-12-26T12:50:42;9.82;;;0.40;;
37641;SDS011;23486;51.956;5.888;2022-12-26T13:01:14;4.85;;;0.50;;
37641;SDS011;23486;51.956;5.888;2022-12-26T13:03:46;4.65;;;0.30;;
37641;SDS011;23486;51.956;5.888;2022-12-26T13:09:05;8.10;;;0.30;;
37641;SDS011;23486;51.956;5.888;2022-12-26T13:11:53;4.05;;;0.30;;
37641;SDS011;23486;51.956;5.888;2022-12-26T13:14:39;5.32;;;0.40;;
37641;SDS011;23486;51.956;5.888;2022-12-26T13:17:10;4.20;;;0.40;;
37641;SDS011;23486;51.956;5.888;2022-12-26T13:20:00;5.55;;;0.50;;
37641;SDS011;23486;51.956;5.888;2022-12-26T13:22:52;9.45;;;1.00;;
37641;SDS011;23486;51.956;5.888;2022-12-26T13:25:46;5.30;;;0.60;;
37641;SDS011;23486;51.956;5.888;2022-12-26T13:28:29;3.92;;;0.40;;
37641;SDS011;23486;51.956;5.888;2022-12-26T13:31:00;5.68;;;0.60;;
37641;SDS011;23486;51.956;5.888;2022-12-26T13:33:28;7.05;;;0.50;;
37641;SDS011;23486;51.956;5.888;2022-12-26T13:35:58;7.03;;;0.40;;
37641;SDS011;23486;51.956;5.888;2022-12-26T13:41:22;8.02;;;0.63;;
37641;SDS011;23486;51.956;5.888;2022-12-26T13:49:25;7.05;;;0.50;;
37641;SDS011;23486;51.956;5.888;2022-12-26T13:51:57;3.95;;;0.38;;
37641;SDS011;23486;51.956;5.888;2022-12-26T13:54:25;5.05;;;0.38;;
37641;SDS011;23486;51.956;5.888;2022-12-26T13:56:56;6.40;;;0.30;;
37641;SDS011;23486;51.956;5.888;2022-12-26T13:59:37;3.92;;;0.30;;
37641;SDS011;23486;51.956;5.888;2022-12-26T14:05:20;2.03;;;0.30;;
37641;SDS011;23486;51.956;5.888;2022-12-26T14:08:09;1.83;;;0.25;;
37641;SDS011;23486;51.956;5.888;2022-12-26T14:29:56;1.88;;;0.32;;
37641;SDS011;23486;51.956;5.888;2022-12-26T14:38:26;4.35;;;0.50;;
37641;SDS011;23486;51.956;5.888;2022-12-26T14:41:16;9.38;;;0.60;;
37641;SDS011;23486;51.956;5.888;2022-12-26T14:44:09;3.97;;;0.50;;
37641;SDS011;23486;51.956;5.888;2022-12-26T14:49:17;4.70;;;0.47;;
37641;SDS011;23486;51.956;5.888;2022-12-26T14:54:50;10.00;;;0.60;;
37641;SDS011;23486;51.956;5.888;2022-12-26T15:02:47;9.43;;;0.77;;
37641;SDS011;23486;51.956;5.888;2022-12-26T15:05:24;3.42;;;0.50;;
37641;SDS011;23486;51.956;5.888;2022-12-26T15:07:58;5.78;;;0.55;;
37641;SDS011;23486;51.956;5.888;2022-12-26T15:13:22;6.57;;;0.80;;
37641;SDS011;23486;51.956;5.888;2022-12-26T15:27:10;5.15;;;1.67;;
37641;SDS011;23486;51.956;5.888;2022-12-26T15:29:59;3.38;;;0.40;;
37641;SDS011;23486;51.956;5.888;2022-12-26T15:35:32;5.63;;;0.40;;
37641;SDS011;23486;51.956;5.888;2022-12-26T15:38:06;5.57;;;0.60;;
37641;SDS011;23486;51.956;5.888;2022-12-26T15:40:43;5.70;;;0.40;;
37641;SDS011;23486;51.956;5.888;2022-12-26T15:43:37;2.42;;;0.32;;
37641;SDS011;23486;51.956;5.888;2022-12-26T15:48:51;4.22;;;0.40;;
37641;SDS011;23486;51.956;5.888;2022-12-26T15:57:11;3.53;;;0.40;;
37641;SDS011;23486;51.956;5.888;2022-12-26T16:07:49;5.88;;;0.70;;
37641;SDS011;23486;51.956;5.888;2022-12-26T16:18:18;4.63;;;0.80;;
37641;SDS011;23486;51.956;5.888;2022-12-26T16:20:45;6.00;;;0.65;;
37641;SDS011;23486;51.956;5.888;2022-12-26T16:23:34;6.63;;;0.65;;
37641;SDS011;23486;51.956;5.888;2022-12-26T16:26:02;5.93;;;0.50;;
37641;SDS011;23486;51.956;5.888;2022-12-26T16:28:38;5.85;;;0.70;;
37641;SDS011;23486;51.956;5.888;2022-12-26T16:31:06;5.40;;;0.70;;
37641;SDS011;23486;51.956;5.888;2022-12-26T16:33:39;6.25;;;0.50;;
37641;SDS011;23486;51.956;5.888;2022-12-26T16:36:06;6.00;;;0.85;;
37641;SDS011;23486;51.956;5.888;2022-12-26T16:38:40;4.80;;;0.50;;
37641;SDS011;23486;51.956;5.888;2022-12-26T16:41:17;3.30;;;0.63;;
37641;SDS011;23486;51.956;5.888;2022-12-26T16:43:46;5.88;;;0.80;;
37641;SDS011;23486;51.956;5.888;2022-12-26T16:46:13;3.97;;;0.70;;
37641;SDS011;23486;51.956;5.888;2022-12-26T16:48:42;8.00;;;0.75;;
37641;SDS011;23486;51.956;5.888;2022-12-26T16:54:14;3.40;;;0.43;;
37641;SDS011;23486;51.956;5.888;2022-12-26T16:56:46;6.63;;;0.50;;
37641;SDS011;23486;51.956;5.888;2022-12-26T16:59:17;3.08;;;0.90;;
37641;SDS011;23486;51.956;5.888;2022-12-26T17:01:49;5.68;;;0.70;;
37641;SDS011;23486;51.956;5.888;2022-12-26T17:04:18;4.63;;;0.80;;
37641;SDS011;23486;51.956;5.888;2022-12-26T17:07:00;4.20;;;0.88;;
37641;SDS011;23486;51.956;5.888;2022-12-26T17:09:30;8.07;;;0.75;;
37641;SDS011;23486;51.956;5.888;2022-12-26T17:12:06;4.00;;;0.82;;
37641;SDS011;23486;51.956;5.888;2022-12-26T17:14:41;4.22;;;1.00;;
37641;SDS011;23486;51.956;5.888;2022-12-26T17:19:46;9.68;;;1.27;;
37641;SDS011;23486;51.956;5.888;2022-12-26T17:22:20;8.85;;;1.15;;
37641;SDS011;23486;51.956;5.888;2022-12-26T17:27:45;7.57;;;0.93;;
37641;SDS011;23486;51.956;5.888;2022-12-26T17:30:20;7.10;;;0.90;;
37641;SDS011;23486;51.956;5.888;2022-12-26T17:32:51;5.13;;;0.90;;
37641;SDS011;23486;51.956;5.888;2022-12-26T17:35:18;6.10;;;0.80;;
37641;SDS011;23486;51.956;5.888;2022-12-26T17:37:49;4.90;;;0.88;;
37641;SDS011;23486;51.956;5.888;2022-12-26T17:40:36;4.13;;;0.63;;
37641;SDS011;23486;51.956;5.888;2022-12-26T17:43:16;3.13;;;0.80;;
37641;SDS011;23486;51.956;5.888;2022-12-26T17:45:45;7.78;;;0.90;;
37641;SDS011;23486;51.956;5.888;2022-12-26T17:48:11;7.10;;;1.60;;
37641;SDS011;23486;51.956;5.888;2022-12-26T17:50:37;8.93;;;1.23;;
37641;SDS011;23486;51.956;5.888;2022-12-26T17:53:07;4.45;;;1.35;;
37641;SDS011;23486;51.956;5.888;2022-12-26T17:55:57;7.18;;;1.10;;
37641;SDS011;23486;51.956;5.888;2022-12-26T17:58:25;4.13;;;1.20;;
37641;SDS011;23486;51.956;5.888;2022-12-26T18:00:54;4.85;;;0.90;;
37641;SDS011;23486;51.956;5.888;2022-12-26T18:03:20;7.78;;;0.77;;
37641;SDS011;23486;51.956;5.888;2022-12-26T18:05:46;7.22;;;0.70;;
37641;SDS011;23486;51.956;5.888;2022-12-26T18:08:45;8.90;;;0.77;;
37641;SDS011;23486;51.956;5.888;2022-12-26T18:11:06;5.00;;;0.80;;
37641;SDS011;23486;51.956;5.888;2022-12-26T18:13:33;6.88;;;0.70;;
37641;SDS011;23486;51.956;5.888;2022-12-26T18:15:59;7.35;;;0.90;;
37641;SDS011;23486;51.956;5.888;2022-12-26T18:21:02;9.95;;;0.85;;
37641;SDS011;23486;51.956;5.888;2022-12-26T18:23:28;5.60;;;0.65;;
37641;SDS011;23486;51.956;5.888;2022-12-26T18:25:54;8.57;;;0.88;;
37641;SDS011;23486;51.956;5.888;2022-12-26T18:28:23;4.13;;;0.52;;
37641;SDS011;23486;51.956;5.888;2022-12-26T18:30:49;9.05;;;0.88;;
37641;SDS011;23486;51.956;5.888;2022-12-26T18:33:14;6.55;;;0.70;;
37641;SDS011;23486;51.956;5.888;2022-12-26T18:35:40;5.72;;;0.60;;
37641;SDS011;23486;51.956;5.888;2022-12-26T18:38:08;5.97;;;0.63;;
37641;SDS011;23486;51.956;5.888;2022-12-26T18:40:39;5.63;;;0.65;;
37641;SDS011;23486;51.956;5.888;2022-12-26T18:43:07;9.73;;;1.08;;
37641;SDS011;23486;51.956;5.888;2022-12-26T18:45:33;8.73;;;0.93;;
37641;SDS011;23486;51.956;5.888;2022-12-26T18:48:00;7.60;;;0.95;;
37641;SDS011;23486;51.956;5.888;2022-12-26T18:50:26;13.38;;;1.63;;
37641;SDS011;23486;51.956;5.888;2022-12-26T18:52:53;5.00;;;0.90;;
37641;SDS011;23486;51.956;5.888;2022-12-26T18:55:19;6.30;;;1.10;;
37641;SDS011;23486;51.956;5.888;2022-12-26T18:57:45;7.13;;;1.13;;